Terminal Aerodrome Forecast
Issued by NWS Grand Forks, ND

Home | Current Version | Previous Version | Graphics & Text | Print | Product List | Glossary On
Versions: 1 2 3 4 5 6 7 8 9 10 11 12 13 14 15 16 17 18 19 20
000
FTUS43 KFGF 290500
TAFGFK
TAF
KGFK 290520Z 2906/3006 36010KT P6SM OVC015
      TEMPO 2909/2912 BKN040
     FM291200 03008KT P6SM BKN025
      TEMPO 2912/2915 BKN040
     FM291500 06010KT P6SM BKN040
     FM292100 09010KT P6SM SKC=

USA.gov is the U.S. government's official web portal to all federal, state and local government web resources and services.